Time;durP1;ratioP1;P1;durP2;ratioP2;P2;SDS_P1;SDS_P2;PMS_P1;PMS_P2;Temp;Humidity;BMP_temperature;BMP_pressure;BME280_temperature;BME280_humidity;BME280_pressure;Samples;Min_cycle;Max_cycle;Signal;HPM_P1;HPM_P2
2022/12/01 00:00:26;;;;;;;56.88;22.92;;;;;;;;;;4981194;28;20061;-67
2022/12/01 00:02:52;;;;;;;51.55;23.45;;;;;;;;;;4981877;28;20050;-68
2022/12/01 00:05:17;;;;;;;45.03;18.20;;;;;;;;;;4982905;28;20108;-68
2022/12/01 00:07:43;;;;;;;60.28;24.50;;;;;;;;;;4982759;28;20125;-68
2022/12/01 00:10:25;;;;;;;60.28;23.20;;;;;;;;;;4982599;28;20185;-69
2022/12/01 00:12:51;;;;;;;;;;;;;;;;;;4979527;28;20042;-69
2022/12/01 00:15:16;;;;;;;59.17;23.98;;;;;;;;;;4982346;28;19922;-70
2022/12/01 00:17:44;;;;;;;55.05;21.38;;;;;;;;;;4982578;28;20069;-69
2022/12/01 00:20:11;;;;;;;56.72;21.65;;;;;;;;;;4982435;28;20050;-68
2022/12/01 00:22:36;;;;;;;59.78;22.77;;;;;;;;;;4980719;28;20054;-68
2022/12/01 00:25:02;;;;;;;61.78;23.75;;;;;;;;;;4982042;28;20038;-68
2022/12/01 00:27:28;;;;;;;55.13;21.70;;;;;;;;;;4982323;28;20057;-68
2022/12/01 00:29:53;;;;;;;56.25;22.40;;;;;;;;;;4981019;28;20046;-68
2022/12/01 00:32:19;;;;;;;56.50;22.75;;;;;;;;;;4981294;28;20049;-68
2022/12/01 00:34:44;;;;;;;55.67;23.05;;;;;;;;;;4980980;28;20056;-68
2022/12/01 00:37:09;;;;;;;61.63;22.83;;;;;;;;;;4982055;28;20431;-68
2022/12/01 00:39:35;;;;;;;59.60;22.02;;;;;;;;;;4982250;28;20077;-68
2022/12/01 00:42:00;;;;;;;56.45;21.42;;;;;;;;;;4981739;28;20042;-67
2022/12/01 00:44:26;;;;;;;61.28;23.90;;;;;;;;;;4980564;28;20580;-68
2022/12/01 00:46:51;;;;;;;68.47;26.30;;;;;;;;;;4981721;28;20050;-68
2022/12/01 00:49:16;;;;;;;70.50;27.35;;;;;;;;;;4980759;28;20050;-68
2022/12/01 00:51:42;;;;;;;79.07;26.02;;;;;;;;;;4981802;28;20097;-68
2022/12/01 00:54:07;;;;;;;83.50;26.52;;;;;;;;;;4981910;28;20533;-68
2022/12/01 00:56:33;;;;;;;79.18;27.40;;;;;;;;;;4980409;28;20142;-67
2022/12/01 00:58:58;;;;;;;90.35;26.70;;;;;;;;;;4981720;28;20108;-67
2022/12/01 01:01:24;;;;;;;80.45;27.20;;;;;;;;;;4981657;28;20078;-67
2022/12/01 01:03:49;;;;;;;75.28;26.42;;;;;;;;;;4981479;28;20052;-67
2022/12/01 01:06:15;;;;;;;77.47;26.75;;;;;;;;;;4980433;28;20423;-68
2022/12/01 01:08:40;;;;;;;84.40;28.40;;;;;;;;;;4981521;28;20517;-67
2022/12/01 01:11:07;;;;;;;88.00;29.17;;;;;;;;;;4981586;28;20042;-67
2022/12/01 01:13:34;;;;;;;90.32;29.95;;;;;;;;;;4981453;28;20039;-67
2022/12/01 01:16:06;;;;;;;71.82;24.48;;;;;;;;;;4981513;28;20410;-67
2022/12/01 01:18:32;;;;;;;73.60;26.98;;;;;;;;;;4980191;28;20054;-68
2022/12/01 01:21:03;;;;;;;79.18;26.35;;;;;;;;;;4980858;28;20061;-68
2022/12/01 01:23:29;;;;;;;74.22;24.77;;;;;;;;;;4981160;28;20059;-69
2022/12/01 01:26:07;;;;;;;69.88;26.17;;;;;;;;;;4981335;28;20030;-68
2022/12/01 01:28:33;;;;;;;74.97;26.75;;;;;;;;;;4979156;28;20043;-67
2022/12/01 01:30:59;;;;;;;78.95;28.17;;;;;;;;;;4979287;28;20111;-68
2022/12/01 01:33:24;;;;;;;75.75;27.15;;;;;;;;;;4978568;28;20056;-67
2022/12/01 01:35:50;;;;;;;72.80;25.85;;;;;;;;;;4979843;28;20054;-67
2022/12/01 01:38:15;;;;;;;74.82;26.25;;;;;;;;;;4977954;28;20049;-68
2022/12/01 01:40:43;;;;;;;79.30;24.70;;;;;;;;;;4980135;28;20045;-67
2022/12/01 01:43:16;;;;;;;81.53;26.45;;;;;;;;;;4980866;28;20476;-68
2022/12/01 01:45:43;;;;;;;85.75;28.13;;;;;;;;;;4981120;28;20092;-67
2022/12/01 01:48:12;;;;;;;83.10;26.20;;;;;;;;;;4981496;28;20558;-67
2022/12/01 01:50:38;;;;;;;78.38;27.13;;;;;;;;;;4979843;28;20177;-68
2022/12/01 01:53:09;;;;;;;91.82;28.70;;;;;;;;;;4980594;28;20057;-68
2022/12/01 01:55:35;;;;;;;84.73;27.80;;;;;;;;;;4981365;28;20281;-68
2022/12/01 01:58:05;;;;;;;106.13;29.13;;;;;;;;;;4981173;28;20042;-68
2022/12/01 02:00:31;;;;;;;93.13;27.58;;;;;;;;;;4980786;28;20046;-68
2022/12/01 02:02:58;;;;;;;101.28;28.15;;;;;;;;;;4979654;28;20086;-68
2022/12/01 02:05:28;;;;;;;110.85;28.98;;;;;;;;;;4981130;28;20049;-68
2022/12/01 02:07:55;;;;;;;116.80;32.05;;;;;;;;;;4980802;28;20046;-68
2022/12/01 02:10:39;;;;;;;112.53;31.33;;;;;;;;;;4980564;28;20052;-69
2022/12/01 02:13:40;;;;;;;108.65;30.25;;;;;;;;;;4979656;28;20050;-68
2022/12/01 02:16:42;;;;;;;111.15;31.42;;;;;;;;;;4980570;28;20050;-69
2022/12/01 02:19:41;;;;;;;120.00;30.77;;;;;;;;;;4978689;28;20053;-68
2022/12/01 02:22:32;;;;;;;102.03;28.70;;;;;;;;;;4980568;28;20117;-69
2022/12/01 02:25:19;;;;;;;101.03;29.60;;;;;;;;;;4950070;28;20046;-69
2022/12/01 02:28:11;;;;;;;106.63;30.10;;;;;;;;;;4980672;28;20060;-69
2022/12/01 02:30:58;;;;;;;121.55;32.83;;;;;;;;;;4980237;28;20086;-69
2022/12/01 02:33:35;;;;;;;106.28;30.58;;;;;;;;;;4977171;28;20038;-69
2022/12/01 02:36:13;;;;;;;109.43;29.73;;;;;;;;;;4982900;28;20046;-69
2022/12/01 02:38:51;;;;;;;106.35;28.20;;;;;;;;;;4984054;28;20423;-69
2022/12/01 02:41:24;;;;;;;101.32;29.40;;;;;;;;;;4984221;28;20053;-69
2022/12/01 02:43:56;;;;;;;93.60;29.67;;;;;;;;;;4983909;28;20124;-69
2022/12/01 02:46:26;;;;;;;92.00;28.17;;;;;;;;;;4982944;28;20141;-67
2022/12/01 02:48:56;;;;;;;86.43;26.50;;;;;;;;;;4983907;28;20101;-67
2022/12/01 02:51:29;;;;;;;81.13;26.08;;;;;;;;;;4983871;28;20054;-69
2022/12/01 02:53:58;;;;;;;95.07;28.50;;;;;;;;;;4983963;28;20077;-69
2022/12/01 02:56:24;;;;;;;94.97;28.08;;;;;;;;;;4982728;28;20046;-69
2022/12/01 02:58:50;;;;;;;93.55;28.25;;;;;;;;;;4983918;28;20049;-69
2022/12/01 03:01:18;;;;;;;99.25;28.52;;;;;;;;;;4983810;28;20080;-68
2022/12/01 03:04:02;;;;;;;97.18;28.13;;;;;;;;;;4983476;28;20082;-69
2022/12/01 03:06:30;;;;;;;99.57;28.65;;;;;;;;;;4983590;28;20507;-69
2022/12/01 03:09:14;;;;;;;79.97;26.50;;;;;;;;;;4983206;28;20525;-68
2022/12/01 03:11:53;;;;;;;100.63;28.02;;;;;;;;;;4983819;28;20062;-68
2022/12/01 03:14:38;;;;;;;85.07;26.70;;;;;;;;;;4983161;28;20384;-69
2022/12/01 03:17:09;;;;;;;92.40;27.85;;;;;;;;;;4982935;28;20049;-69
2022/12/01 03:19:42;;;;;;;89.13;28.00;;;;;;;;;;4982918;28;20045;-69
2022/12/01 03:22:27;;;;;;;92.88;28.83;;;;;;;;;;4983430;28;20289;-68
2022/12/01 03:24:54;;;;;;;83.70;27.20;;;;;;;;;;4980874;28;20068;-68
2022/12/01 03:27:25;;;;;;;86.10;27.63;;;;;;;;;;4983616;28;20050;-69
2022/12/01 03:29:53;;;;;;;105.18;28.48;;;;;;;;;;4980857;28;20062;-69
2022/12/01 03:32:28;;;;;;;87.85;27.70;;;;;;;;;;4982361;28;20523;-70
2022/12/01 03:35:07;;;;;;;83.85;27.35;;;;;;;;;;4983292;28;20525;-69
2022/12/01 03:37:42;;;;;;;83.57;27.63;;;;;;;;;;4983727;28;20100;-69
2022/12/01 03:40:11;;;;;;;106.85;30.15;;;;;;;;;;4982622;28;20042;-68
2022/12/01 03:43:01;;;;;;;101.20;29.27;;;;;;;;;;4982351;28;20054;-69
2022/12/01 03:45:33;;;;;;;83.95;28.27;;;;;;;;;;4976288;28;20070;-69
2022/12/01 03:47:59;;;;;;;93.32;27.75;;;;;;;;;;4983276;28;20507;-69
2022/12/01 03:50:37;;;;;;;85.40;27.25;;;;;;;;;;4982420;28;20034;-69
2022/12/01 03:53:18;;;;;;;85.40;25.48;;;;;;;;;;4982128;28;20053;-68
2022/12/01 03:55:50;;;;;;;79.57;26.63;;;;;;;;;;4983001;28;20568;-69
2022/12/01 03:58:24;;;;;;;76.05;25.55;;;;;;;;;;4982498;28;20129;-69
2022/12/01 04:00:54;;;;;;;71.88;25.17;;;;;;;;;;4982871;28;20137;-69
2022/12/01 04:03:23;;;;;;;60.55;21.80;;;;;;;;;;4982037;28;20081;-69
2022/12/01 04:05:49;;;;;;;75.43;26.63;;;;;;;;;;4982837;28;20049;-68
2022/12/01 04:08:14;;;;;;;67.95;22.63;;;;;;;;;;4982173;28;20038;-70
2022/12/01 04:10:39;;;;;;;61.35;23.42;;;;;;;;;;4982956;28;20523;-68
2022/12/01 04:13:10;;;;;;;59.25;21.42;;;;;;;;;;4982202;28;20125;-68
2022/12/01 04:15:36;;;;;;;60.55;22.17;;;;;;;;;;4982212;28;20038;-68
2022/12/01 04:18:01;;;;;;;84.10;28.50;;;;;;;;;;4982558;28;20046;-68
2022/12/01 04:20:27;;;;;;;109.45;32.97;;;;;;;;;;4981893;28;20043;-68
2022/12/01 04:22:52;;;;;;;106.72;35.08;;;;;;;;;;4982492;28;20779;-68
2022/12/01 04:25:18;;;;;;;76.60;27.70;;;;;;;;;;4981124;28;20042;-68
2022/12/01 04:27:43;;;;;;;81.18;28.27;;;;;;;;;;4982437;28;20065;-68
2022/12/01 04:30:09;;;;;;;82.95;27.17;;;;;;;;;;4981888;28;20054;-68
2022/12/01 04:32:39;;;;;;;68.10;25.00;;;;;;;;;;4980276;28;20050;-68
2022/12/01 04:35:06;;;;;;;77.90;26.20;;;;;;;;;;4981422;28;20061;-68
2022/12/01 04:37:32;;;;;;;76.45;24.95;;;;;;;;;;4981907;28;20042;-68
2022/12/01 04:39:57;;;;;;;71.07;25.33;;;;;;;;;;4980279;28;20051;-68
2022/12/01 04:42:23;;;;;;;71.13;24.77;;;;;;;;;;4996014;28;20413;-68
2022/12/01 04:44:48;;;;;;;81.20;24.83;;;;;;;;;;4981164;28;20107;-68
2022/12/01 04:47:14;;;;;;;70.95;26.42;;;;;;;;;;4980663;28;20046;-68
2022/12/01 04:49:39;;;;;;;68.13;24.23;;;;;;;;;;4981318;28;20077;-68
2022/12/01 04:52:04;;;;;;;73.05;24.13;;;;;;;;;;4981781;28;20137;-68
2022/12/01 04:54:30;;;;;;;70.18;24.15;;;;;;;;;;4980290;28;20046;-68
2022/12/01 04:56:55;;;;;;;71.28;25.48;;;;;;;;;;4980905;28;20057;-68
2022/12/01 04:59:21;;;;;;;75.30;25.42;;;;;;;;;;4980256;28;20062;-69
2022/12/01 05:01:46;;;;;;;65.38;23.77;;;;;;;;;;4980037;28;20042;-68
2022/12/01 05:04:13;;;;;;;70.05;24.27;;;;;;;;;;4980917;28;20073;-68
2022/12/01 05:06:39;;;;;;;75.57;24.02;;;;;;;;;;4980629;28;20056;-68
2022/12/01 05:09:05;;;;;;;61.90;22.67;;;;;;;;;;4979601;28;20042;-69
2022/12/01 05:11:32;;;;;;;56.70;21.10;;;;;;;;;;4981056;28;20050;-69
2022/12/01 05:13:58;;;;;;;61.53;22.63;;;;;;;;;;4979970;28;20050;-70
2022/12/01 05:16:30;;;;;;;65.75;23.48;;;;;;;;;;4980416;28;20052;-71
2022/12/01 05:21:43;;;;;;;65.07;22.48;;;;;;;;;;4980917;28;20959;-70
2022/12/01 05:24:10;;;;;;;54.13;20.92;;;;;;;;;;4979695;28;20054;-70
2022/12/01 05:26:36;;;;;;;60.83;22.10;;;;;;;;;;4969341;28;20050;-70
2022/12/01 05:29:01;;;;;;;53.75;21.45;;;;;;;;;;4979218;28;20050;-70
2022/12/01 05:31:27;;;;;;;64.90;23.17;;;;;;;;;;4977609;28;20068;-69
2022/12/01 05:33:52;;;;;;;60.63;21.92;;;;;;;;;;4979108;28;21085;-70
2022/12/01 05:36:17;;;;;;;54.75;21.88;;;;;;;;;;4979446;28;21187;-70
2022/12/01 05:38:43;;;;;;;55.70;21.63;;;;;;;;;;4979315;28;20189;-70
2022/12/01 05:41:09;;;;;;;56.35;22.63;;;;;;;;;;4977708;28;20080;-69
2022/12/01 05:43:34;;;;;;;55.65;20.40;;;;;;;;;;4978473;28;20038;-69
2022/12/01 05:46:00;;;;;;;48.45;19.42;;;;;;;;;;4980603;28;20046;-69
2022/12/01 05:48:26;;;;;;;52.33;19.58;;;;;;;;;;4980431;28;20578;-70
2022/12/01 05:50:51;;;;;;;50.90;19.90;;;;;;;;;;4979102;28;20053;-70
2022/12/01 05:53:17;;;;;;;52.05;20.90;;;;;;;;;;4979947;28;20633;-69
2022/12/01 05:55:43;;;;;;;58.80;20.88;;;;;;;;;;4978771;28;20156;-72
2022/12/01 05:58:09;;;;;;;46.03;18.83;;;;;;;;;;4979432;28;20145;-73
2022/12/01 06:00:35;;;;;;;52.83;20.63;;;;;;;;;;4977269;28;20490;-72
2022/12/01 06:03:01;;;;;;;48.65;19.90;;;;;;;;;;4977056;28;20065;-70
2022/12/01 06:05:27;;;;;;;49.60;20.95;;;;;;;;;;4978479;28;20038;-70
2022/12/01 06:07:52;;;;;;;50.83;19.48;;;;;;;;;;4982103;28;20120;-70
2022/12/01 06:10:18;;;;;;;50.83;19.38;;;;;;;;;;4983748;28;20443;-68
2022/12/01 06:12:43;;;;;;;59.72;21.10;;;;;;;;;;4982979;28;20133;-69
2022/12/01 06:15:11;;;;;;;48.90;19.83;;;;;;;;;;4980901;28;20049;-69
2022/12/01 06:17:36;;;;;;;55.53;20.15;;;;;;;;;;4982152;28;20092;-69
2022/12/01 06:20:03;;;;;;;49.67;19.73;;;;;;;;;;4980421;28;20046;-69
2022/12/01 06:22:28;;;;;;;53.05;19.33;;;;;;;;;;4980949;28;20046;-69
2022/12/01 06:24:53;;;;;;;45.50;19.65;;;;;;;;;;4981223;28;20474;-69
2022/12/01 06:27:19;;;;;;;50.47;19.75;;;;;;;;;;4980820;28;20046;-69
2022/12/01 06:29:44;;;;;;;46.53;18.77;;;;;;;;;;4982409;28;20043;-68
2022/12/01 06:32:10;;;;;;;48.28;19.50;;;;;;;;;;4982951;28;20450;-71
2022/12/01 06:34:35;;;;;;;47.88;20.73;;;;;;;;;;4981892;28;20065;-68
2022/12/01 06:37:01;;;;;;;47.95;20.50;;;;;;;;;;4983312;28;20050;-68
2022/12/01 06:39:26;;;;;;;49.20;20.48;;;;;;;;;;4984271;28;20157;-68
2022/12/01 06:41:51;;;;;;;50.67;19.48;;;;;;;;;;4984061;28;20046;-68
2022/12/01 06:44:17;;;;;;;48.92;19.00;;;;;;;;;;4982938;28;20037;-68
2022/12/01 06:46:42;;;;;;;48.20;19.05;;;;;;;;;;4983548;28;20499;-68
2022/12/01 06:49:11;;;;;;;42.15;19.23;;;;;;;;;;4983130;28;20046;-68
2022/12/01 06:51:37;;;;;;;48.17;19.27;;;;;;;;;;4983791;28;20053;-68
2022/12/01 06:54:03;;;;;;;51.65;19.85;;;;;;;;;;4983599;28;20045;-69
2022/12/01 06:56:28;;;;;;;48.55;20.27;;;;;;;;;;4977034;28;20050;-69
2022/12/01 06:58:54;;;;;;;45.30;19.73;;;;;;;;;;4981278;28;20072;-70
2022/12/01 07:01:20;;;;;;;47.92;19.10;;;;;;;;;;4982896;28;20141;-70
2022/12/01 07:03:49;;;;;;;49.10;18.98;;;;;;;;;;4982846;28;20050;-70
2022/12/01 07:06:15;;;;;;;50.25;18.88;;;;;;;;;;4982125;28;20046;-69
2022/12/01 07:08:41;;;;;;;48.35;19.58;;;;;;;;;;4983310;28;20103;-69
2022/12/01 07:11:08;;;;;;;46.58;18.75;;;;;;;;;;4982778;28;20046;-68
2022/12/01 07:13:35;;;;;;;39.17;17.17;;;;;;;;;;4983218;28;20072;-69
2022/12/01 07:16:02;;;;;;;38.10;17.25;;;;;;;;;;4983697;28;20054;-70
2022/12/01 07:18:27;;;;;;;47.60;17.05;;;;;;;;;;4983466;28;20085;-69
2022/12/01 07:20:57;;;;;;;35.78;15.70;;;;;;;;;;4982733;28;20136;-70
2022/12/01 07:23:22;;;;;;;42.58;18.25;;;;;;;;;;4982415;28;20934;-70
2022/12/01 07:25:47;;;;;;;36.83;15.65;;;;;;;;;;4988786;28;20985;-71
2022/12/01 07:28:13;;;;;;;37.13;16.67;;;;;;;;;;4986957;28;20133;-69
2022/12/01 07:30:38;;;;;;;40.30;17.40;;;;;;;;;;4980805;28;20137;-70
2022/12/01 07:33:04;;;;;;;40.50;16.85;;;;;;;;;;4983116;28;20049;-69
2022/12/01 07:35:29;;;;;;;36.72;16.83;;;;;;;;;;4983074;28;20042;-69
2022/12/01 07:37:55;;;;;;;43.10;17.45;;;;;;;;;;4983487;28;20742;-70
2022/12/01 07:40:21;;;;;;;43.05;18.00;;;;;;;;;;4982729;28;20046;-69
2022/12/01 07:42:47;;;;;;;52.08;19.10;;;;;;;;;;4982244;28;20495;-68
2022/12/01 07:45:12;;;;;;;36.88;16.27;;;;;;;;;;4982602;28;20634;-69
2022/12/01 07:47:38;;;;;;;47.13;18.63;;;;;;;;;;4981854;28;20054;-68
2022/12/01 07:50:04;;;;;;;46.78;18.10;;;;;;;;;;4983167;28;20141;-68
2022/12/01 07:52:29;;;;;;;43.10;18.23;;;;;;;;;;4981649;28;20083;-68
2022/12/01 07:54:54;;;;;;;48.22;20.83;;;;;;;;;;4982090;28;20050;-69
2022/12/01 07:57:20;;;;;;;48.75;19.15;;;;;;;;;;4982275;28;20046;-68
2022/12/01 07:59:45;;;;;;;38.15;18.55;;;;;;;;;;4983649;28;20045;-68
2022/12/01 08:02:11;;;;;;;38.72;17.02;;;;;;;;;;4983156;28;20049;-68
2022/12/01 08:04:36;;;;;;;36.53;16.38;;;;;;;;;;4981000;28;20046;-67
2022/12/01 08:07:02;;;;;;;44.30;18.17;;;;;;;;;;4982735;28;20050;-69
2022/12/01 08:09:27;;;;;;;47.28;18.13;;;;;;;;;;4982404;28;20050;-68
2022/12/01 08:11:53;;;;;;;39.33;16.42;;;;;;;;;;4997212;28;20042;-68
2022/12/01 08:14:19;;;;;;;37.97;15.93;;;;;;;;;;4980741;28;20034;-68
2022/12/01 08:16:44;;;;;;;39.42;17.35;;;;;;;;;;4982000;28;20286;-70
2022/12/01 08:19:10;;;;;;;41.10;17.38;;;;;;;;;;4982408;28;20042;-70
2022/12/01 08:21:36;;;;;;;37.13;16.52;;;;;;;;;;4982198;28;20140;-71
2022/12/01 08:24:03;;;;;;;40.65;17.67;;;;;;;;;;4981430;28;20141;-70
2022/12/01 08:26:29;;;;;;;40.80;18.23;;;;;;;;;;4980900;28;20125;-71
2022/12/01 08:28:54;;;;;;;39.35;17.42;;;;;;;;;;4982039;28;20517;-69
2022/12/01 08:31:23;;;;;;;39.70;17.70;;;;;;;;;;4981832;28;20050;-70
2022/12/01 08:33:49;;;;;;;39.83;18.77;;;;;;;;;;4981584;28;20129;-70
2022/12/01 08:36:16;;;;;;;35.75;16.48;;;;;;;;;;4981690;28;20463;-69
2022/12/01 08:38:43;;;;;;;40.58;17.73;;;;;;;;;;4981518;28;20120;-69
2022/12/01 08:41:09;;;;;;;45.92;17.65;;;;;;;;;;4982810;28;20129;-68
2022/12/01 08:43:38;;;;;;;43.53;20.33;;;;;;;;;;4982492;28;20487;-69
2022/12/01 08:46:05;;;;;;;41.60;17.92;;;;;;;;;;4981608;28;20053;-71
2022/12/01 08:48:31;;;;;;;39.72;16.58;;;;;;;;;;4981014;28;20905;-70
2022/12/01 08:51:02;;;;;;;37.10;16.60;;;;;;;;;;4980333;28;20053;-70
2022/12/01 08:53:28;;;;;;;39.80;16.45;;;;;;;;;;4981973;28;20554;-70
2022/12/01 08:55:53;;;;;;;32.95;15.55;;;;;;;;;;4981561;28;20050;-69
2022/12/01 08:58:19;;;;;;;33.45;15.60;;;;;;;;;;4980797;28;20482;-70
2022/12/01 09:00:44;;;;;;;33.65;15.65;;;;;;;;;;4981716;28;20116;-69
2022/12/01 09:03:09;;;;;;;35.65;15.63;;;;;;;;;;4981471;28;20038;-71
2022/12/01 09:05:35;;;;;;;34.35;15.45;;;;;;;;;;4980843;28;20492;-68
2022/12/01 09:11:12;;;;;;;36.42;14.85;;;;;;;;;;4971816;28;20046;-70
2022/12/01 09:13:39;;;;;;;39.38;15.82;;;;;;;;;;4978822;28;20129;-68
2022/12/01 09:16:13;;;;;;;42.08;17.95;;;;;;;;;;4979961;28;20061;-69
2022/12/01 09:18:39;;;;;;;41.55;16.30;;;;;;;;;;4979838;28;20046;-70
2022/12/01 09:21:16;;;;;;;45.17;16.92;;;;;;;;;;4980677;28;20046;-70
2022/12/01 09:23:41;;;;;;;35.78;15.23;;;;;;;;;;4979611;28;20057;-70
2022/12/01 09:26:08;;;;;;;34.35;14.80;;;;;;;;;;4980515;28;20038;-70
2022/12/01 09:28:33;;;;;;;33.60;15.43;;;;;;;;;;4980491;28;20042;-69
2022/12/01 09:31:07;;;;;;;31.38;15.30;;;;;;;;;;4981533;28;20049;-70
2022/12/01 09:33:33;;;;;;;31.48;15.93;;;;;;;;;;4981321;28;20161;-72
2022/12/01 09:35:59;;;;;;;35.10;15.60;;;;;;;;;;4995346;28;20053;-69
2022/12/01 09:38:27;;;;;;;31.25;13.73;;;;;;;;;;4995489;28;20039;-69
2022/12/01 09:40:53;;;;;;;34.28;14.23;;;;;;;;;;4981451;28;20061;-69
2022/12/01 09:43:23;;;;;;;29.33;13.40;;;;;;;;;;4980108;28;20046;-70
2022/12/01 09:46:01;;;;;;;29.33;14.10;;;;;;;;;;4981322;28;20081;-70
2022/12/01 09:48:34;;;;;;;34.28;15.10;;;;;;;;;;4980650;28;20046;-68
2022/12/01 09:50:59;;;;;;;31.80;14.48;;;;;;;;;;4981079;28;20046;-69
2022/12/01 09:53:27;;;;;;;30.73;13.63;;;;;;;;;;4979191;28;20061;-69
2022/12/01 09:55:54;;;;;;;49.63;17.67;;;;;;;;;;4980683;28;20038;-68
2022/12/01 09:58:25;;;;;;;29.33;12.93;;;;;;;;;;4980994;28;20042;-69
2022/12/01 10:00:53;;;;;;;27.00;12.65;;;;;;;;;;4980721;28;20228;-70
2022/12/01 10:03:45;;;;;;;24.27;11.63;;;;;;;;;;4981042;28;20133;-70
2022/12/01 10:06:18;;;;;;;26.38;12.15;;;;;;;;;;4979910;28;20077;-68
2022/12/01 10:09:15;;;;;;;26.70;11.82;;;;;;;;;;4980459;28;20050;-68
2022/12/01 10:11:44;;;;;;;26.88;11.63;;;;;;;;;;4979599;28;20046;-67
2022/12/01 10:14:16;;;;;;;30.88;12.60;;;;;;;;;;4979234;28;20169;-67
2022/12/01 10:17:02;;;;;;;26.42;12.00;;;;;;;;;;4978456;28;20133;-67
2022/12/01 10:19:48;;;;;;;26.08;12.95;;;;;;;;;;4980120;28;20042;-68
2022/12/01 10:22:55;;;;;;;29.50;13.63;;;;;;;;;;4979898;28;20425;-68
2022/12/01 10:25:27;;;;;;;29.63;13.77;;;;;;;;;;4960274;28;20077;-68
2022/12/01 10:28:20;;;;;;;27.80;12.50;;;;;;;;;;4981388;28;20030;-67
2022/12/01 10:30:49;;;;;;;24.83;12.77;;;;;;;;;;4979971;28;20609;-68
2022/12/01 10:33:31;;;;;;;23.23;11.27;;;;;;;;;;4980902;28;20451;-68
2022/12/01 10:35:57;;;;;;;20.65;11.18;;;;;;;;;;4979834;28;20042;-69
2022/12/01 10:38:29;;;;;;;21.73;11.30;;;;;;;;;;4979094;28;20053;-69
2022/12/01 10:40:58;;;;;;;23.67;12.18;;;;;;;;;;4980251;28;20050;-69
2022/12/01 10:43:42;;;;;;;21.95;11.45;;;;;;;;;;4980663;28;20060;-68
2022/12/01 10:46:27;;;;;;;22.95;11.93;;;;;;;;;;4980709;28;20483;-70
2022/12/01 10:48:58;;;;;;;23.40;10.93;;;;;;;;;;4977258;28;20091;-68
2022/12/01 10:51:25;;;;;;;23.65;11.27;;;;;;;;;;4980622;28;20046;-67
2022/12/01 10:53:59;;;;;;;21.25;11.38;;;;;;;;;;4980517;28;20052;-69
2022/12/01 10:56:25;;;;;;;20.40;10.75;;;;;;;;;;4983487;28;20049;-70
2022/12/01 10:58:54;;;;;;;20.88;10.38;;;;;;;;;;4983706;28;20049;-69
2022/12/01 11:01:30;;;;;;;22.13;11.25;;;;;;;;;;4983374;28;20046;-67
2022/12/01 11:04:25;;;;;;;20.45;11.20;;;;;;;;;;4983407;28;20054;-67
2022/12/01 11:06:51;;;;;;;22.63;11.60;;;;;;;;;;4968449;28;20515;-68
2022/12/01 11:09:23;;;;;;;20.10;10.82;;;;;;;;;;4984349;28;20104;-68
2022/12/01 11:12:03;;;;;;;22.80;11.38;;;;;;;;;;4983131;28;20070;-67
2022/12/01 11:14:49;;;;;;;22.83;10.55;;;;;;;;;;4982846;28;20073;-67
2022/12/01 11:17:25;;;;;;;21.38;10.70;;;;;;;;;;4983962;28;20046;-68
2022/12/01 11:19:51;;;;;;;19.85;11.07;;;;;;;;;;4983884;28;20042;-68
2022/12/01 11:22:27;;;;;;;20.40;10.40;;;;;;;;;;4982006;28;20116;-68
2022/12/01 11:24:53;;;;;;;22.13;10.85;;;;;;;;;;4997705;28;20046;-69
2022/12/01 11:27:24;;;;;;;21.45;11.30;;;;;;;;;;4984043;28;20068;-68
2022/12/01 11:30:01;;;;;;;21.88;10.70;;;;;;;;;;4983378;28;20068;-67
2022/12/01 11:32:29;;;;;;;21.30;11.20;;;;;;;;;;4996992;28;20177;-68
2022/12/01 11:35:03;;;;;;;26.75;10.65;;;;;;;;;;4997785;28;20042;-70
2022/12/01 11:37:44;;;;;;;23.35;11.55;;;;;;;;;;4983221;28;20053;-69
2022/12/01 11:40:21;;;;;;;17.77;10.48;;;;;;;;;;4983369;28;20050;-68
2022/12/01 11:42:49;;;;;;;21.45;11.23;;;;;;;;;;4982852;28;20132;-67
2022/12/01 11:45:32;;;;;;;21.38;10.05;;;;;;;;;;4982145;28;20046;-69
2022/12/01 11:48:14;;;;;;;22.45;10.05;;;;;;;;;;4982772;28;20042;-68
2022/12/01 11:50:42;;;;;;;20.63;10.43;;;;;;;;;;4982346;28;20078;-68
2022/12/01 11:53:28;;;;;;;21.30;11.68;;;;;;;;;;4982885;28;20048;-67
2022/12/01 11:56:18;;;;;;;20.13;10.75;;;;;;;;;;4980851;28;20046;-68
2022/12/01 11:58:47;;;;;;;23.90;11.05;;;;;;;;;;4982206;28;20046;-69
2022/12/01 12:01:20;;;;;;;18.70;10.00;;;;;;;;;;4982934;28;20073;-71
2022/12/01 12:04:15;;;;;;;23.02;11.55;;;;;;;;;;4980763;28;20046;-73
2022/12/01 12:07:03;;;;;;;17.20;9.60;;;;;;;;;;4927395;28;20051;-69
2022/12/01 12:09:35;;;;;;;18.98;10.82;;;;;;;;;;4983053;28;20046;-70
2022/12/01 12:12:22;;;;;;;19.83;10.05;;;;;;;;;;4982337;28;20082;-68
2022/12/01 12:15:04;;;;;;;20.60;10.07;;;;;;;;;;4981373;28;20060;-68
2022/12/01 12:17:46;;;;;;;;;;;;;;;;;;4982625;28;20054;-68
2022/12/01 12:20:31;;;;;;;16.40;7.93;;;;;;;;;;4997963;28;19925;-71
2022/12/01 12:23:09;;;;;;;17.23;8.77;;;;;;;;;;4980712;28;20277;-69
2022/12/01 12:26:18;;;;;;;15.02;8.48;;;;;;;;;;4983019;28;20074;-67
2022/12/01 12:28:58;;;;;;;20.05;9.88;;;;;;;;;;4901149;29;20129;-68
2022/12/01 12:31:37;;;;;;;26.10;12.50;;;;;;;;;;4903019;29;20051;-68
2022/12/01 12:34:40;;;;;;;24.05;11.90;;;;;;;;;;4952847;28;20074;-68
2022/12/01 12:37:05;;;;;;;25.45;11.85;;;;;;;;;;4979984;28;20050;-72
2022/12/01 12:39:37;;;;;;;24.58;11.45;;;;;;;;;;4980786;28;20097;-70
2022/12/01 12:42:10;;;;;;;29.08;12.85;;;;;;;;;;4999156;28;20065;-71
2022/12/01 12:44:46;;;;;;;25.95;11.93;;;;;;;;;;4982633;28;20042;-69
2022/12/01 12:47:57;;;;;;;25.42;11.45;;;;;;;;;;4983524;28;20058;-71
2022/12/01 12:50:32;;;;;;;28.30;13.98;;;;;;;;;;4929781;28;20049;-68
2022/12/01 12:53:03;;;;;;;24.70;12.05;;;;;;;;;;4981493;28;20173;-68
2022/12/01 12:55:37;;;;;;;24.63;12.18;;;;;;;;;;4980969;28;20081;-68
2022/12/01 12:58:28;;;;;;;28.25;12.38;;;;;;;;;;4980865;28;20069;-68
2022/12/01 13:01:08;;;;;;;32.92;12.55;;;;;;;;;;4977381;28;20058;-68
2022/12/01 13:04:02;;;;;;;30.00;12.70;;;;;;;;;;4978468;28;20046;-68
2022/12/01 13:06:54;;;;;;;22.77;12.20;;;;;;;;;;4974587;28;20042;-68
2022/12/01 13:09:28;;;;;;;27.33;12.05;;;;;;;;;;4980148;28;20053;-69
2022/12/01 13:12:19;;;;;;;24.92;12.02;;;;;;;;;;4980481;28;20153;-67
2022/12/01 13:14:54;;;;;;;22.23;11.60;;;;;;;;;;4986456;28;20084;-68
2022/12/01 13:17:37;;;;;;;18.50;9.43;;;;;;;;;;4996067;28;20499;-71
2022/12/01 13:20:04;;;;;;;24.38;12.30;;;;;;;;;;4997649;28;20060;-68
2022/12/01 13:22:33;;;;;;;25.02;10.93;;;;;;;;;;4982187;28;20049;-68
2022/12/01 13:25:00;;;;;;;21.98;11.38;;;;;;;;;;4980743;28;20034;-68
2022/12/01 13:27:31;;;;;;;22.15;11.10;;;;;;;;;;4982715;28;20086;-69
2022/12/01 13:29:58;;;;;;;27.60;11.63;;;;;;;;;;4981962;28;20220;-68
2022/12/01 13:32:39;;;;;;;27.30;12.85;;;;;;;;;;4982257;28;20046;-69
2022/12/01 13:35:20;;;;;;;24.92;11.95;;;;;;;;;;4981120;28;20523;-69
2022/12/01 13:37:46;;;;;;;31.55;14.32;;;;;;;;;;4982530;28;20072;-68
2022/12/01 13:40:22;;;;;;;27.67;12.73;;;;;;;;;;4997106;28;20081;-68
2022/12/01 13:43:17;;;;;;;29.70;13.02;;;;;;;;;;4981623;28;20897;-70
2022/12/01 13:45:42;;;;;;;34.70;16.98;;;;;;;;;;4979116;28;20456;-69
2022/12/01 13:48:36;;;;;;;34.10;15.77;;;;;;;;;;4975693;28;20069;-69
2022/12/01 13:51:03;;;;;;;32.15;15.48;;;;;;;;;;4978241;28;20300;-69
2022/12/01 13:53:36;;;;;;;32.38;15.82;;;;;;;;;;4982313;28;20160;-70
2022/12/01 13:56:02;;;;;;;31.23;13.80;;;;;;;;;;4980100;28;20137;-69
2022/12/01 13:58:33;;;;;;;30.50;13.85;;;;;;;;;;4981202;28;20069;-69
2022/12/01 14:01:20;;;;;;;26.70;14.05;;;;;;;;;;4980153;28;20672;-69
2022/12/01 14:03:55;;;;;;;25.58;13.60;;;;;;;;;;4980936;28;20050;-69
2022/12/01 14:06:29;;;;;;;28.83;13.38;;;;;;;;;;4978267;28;20061;-68
2022/12/01 14:09:13;;;;;;;28.25;13.95;;;;;;;;;;4979859;28;20064;-68
2022/12/01 14:11:39;;;;;;;32.53;14.88;;;;;;;;;;4979832;28;20053;-68
2022/12/01 14:14:16;;;;;;;31.98;14.77;;;;;;;;;;4980034;28;20027;-68
2022/12/01 14:17:01;;;;;;;31.02;13.88;;;;;;;;;;4978173;28;20481;-67
2022/12/01 14:19:50;;;;;;;24.63;11.90;;;;;;;;;;4977900;28;20061;-67
2022/12/01 14:22:38;;;;;;;24.67;12.73;;;;;;;;;;4978998;28;20049;-67
2022/12/01 14:25:21;;;;;;;31.92;13.95;;;;;;;;;;4974395;28;20054;-67
2022/12/01 14:27:50;;;;;;;29.65;13.77;;;;;;;;;;4979504;28;20125;-67
2022/12/01 14:30:46;;;;;;;29.83;13.73;;;;;;;;;;4982037;28;20086;-67
2022/12/01 14:34:10;;;;;;;30.92;12.93;;;;;;;;;;4979300;28;20140;-67
2022/12/01 14:36:47;;;;;;;28.10;13.30;;;;;;;;;;4932826;28;20046;-67
2022/12/01 14:39:22;;;;;;;30.10;14.95;;;;;;;;;;4928459;28;20158;-67
2022/12/01 14:41:50;;;;;;;28.67;13.85;;;;;;;;;;4959955;28;20050;-66
2022/12/01 14:44:28;;;;;;;25.27;12.88;;;;;;;;;;4981433;28;20430;-65
2022/12/01 14:47:00;;;;;;;27.02;12.88;;;;;;;;;;4979903;28;20860;-67